Flight Track Log - Related Links

Times and Time Zones

All times are in EDT time to prevent confusion due to time zone crossing. See the N240JK flight status page for this flight to view local times or setup timezone preferences in your user account.

Time Position Orientation Groundspeed Altitude Reporting Facility
EDT Latitude Longitude Course Direction KTS MPH feet Rate Location/Type
Sun 10:45:39 AM 36.2628 -76.2411 274° West 196 226 4,800  Level Washington Center
Sun 10:46:15 AM 36.2686 -76.2928 278° West 209 241 7,800 3,588 Climbing Washington Center
Sun 10:47:16 AM 36.2869 -76.3753 285° West 281 323 10,600 3,458 Climbing Washington Center
Sun 10:48:13 AM 36.3556 -76.4172 334° Northwest 306 352 14,600 3,559 Climbing Washington Center
Sun 10:49:14 AM 36.4344 -76.4750 329° Northwest 329 379 17,600 2,826 Climbing Washington Center
Sun 10:50:14 AM 36.5217 -76.5353 331° Northwest 340 391 20,300 2,650 Climbing Washington Center
Sun 10:51:14 AM 36.6108 -76.6011 329° Northwest 357 411 22,900 2,231 Climbing Washington Center
Sun 10:52:15 AM 36.6875 -76.6564 330° Northwest 370 426 24,800 2,281 Climbing Washington Center
Sun 10:53:15 AM 36.7953 -76.7331 330° Northwest 388 447 27,500 2,500 Climbing Washington Center
Sun 10:54:15 AM 36.8947 -76.8047 330° Northwest 402 463 29,800 2,083 Climbing Washington Center
Sun 10:55:16 AM 36.9836 -76.8972 320° Northwest 407 468 31,700 1,966 Climbing Washington Center
Sun 10:56:14 AM 37.0572 -77.0208 307° West 419 482 33,700 1,678 Climbing Washington Center
Sun 10:57:14 AM 37.1350 -77.1447 308° West 443 510 35,000 645 Climbing Washington Center
Sun 10:58:15 AM 37.2186 -77.2742 309° West 467 537 35,000  Level Washington Center
Sun 10:59:15 AM 37.3022 -77.4092 308° West 485 558 35,000 90 Level Washington Center
Sun 11:00:28 AM 37.4042 -77.5683 309° West 490 564 35,200 451 Climbing Washington Center
Sun 11:01:28 AM 37.4853 -77.7014 308° West 490 564 36,000 407 Climbing Washington Center
Sun 11:02:26 AM 37.5664 -77.8319 308° West 490 564 36,000 458 Level Washington Center
Sun 11:03:26 AM 37.6492 -77.9681 308° West 490 564 36,900 1,636 Climbing Washington Center
Sun 11:04:27 AM 37.7300 -78.0967 308° West 490 564 39,300 1,537 Climbing Washington Center
Sun 11:05:27 AM 37.8128 -78.2256 309° West 485 558 40,000 347 Climbing Washington Center
Sun 11:06:28 AM 37.8992 -78.3708 307° West 480 552 40,000  Level Washington Center
Sun 11:07:28 AM 37.9817 -78.5031 308° West 480 552 40,000  Level Washington Center
Sun 11:08:26 AM 38.0617 -78.6406 306° West 475 547 40,000  Level Washington Center
Sun 11:09:26 AM 38.1394 -78.7703 307° West 475 547 40,000  Level Washington Center
Sun 11:10:26 AM 38.1975 -78.8653 308° West 475 547 40,000  Level Washington Center
Sun 11:11:27 AM 38.2931 -79.0283 307° West 475 547 40,000  Level Washington Center
Sun 11:12:25 AM 38.3725 -79.1617 307° West 475 547 40,000  Level Washington Center
Sun 11:13:26 AM 38.4578 -79.3092 306° West 475 547 40,000  Level Washington Center
Sun 11:14:27 AM 38.5369 -79.4431 307° West 475 547 40,000  Level Washington Center
Sun 11:15:28 AM 38.6158 -79.5800 306° West 470 541 40,000  Level Washington Center
Sun 11:16:27 AM 38.6889 -79.7011 308° West 470 541 40,000  Level Washington Center
Sun 11:17:28 AM 38.7656 -79.8383 306° West 470 541 40,000  Level Washington Center
Sun 11:18:20 AM 38.8322 -79.9500 307° West 476 548 40,000  Level Indianapolis Center
Sun 11:19:22 AM 38.9150 -80.0936 307° West 476 548 40,000  Level Indianapolis Center
Sun 11:20:24 AM 39.0044 -80.2508 306° West 477 549 40,000  Level Indianapolis Center
Sun 11:21:25 AM 39.0847 -80.3867 307° West 480 552 40,000  Level Indianapolis Center
Sun 11:22:27 AM 39.1608 -80.5233 306° West 473 544 40,000  Level Indianapolis Center
Sun 11:23:29 AM 39.2406 -80.6614 307° West 482 555 40,000  Level Indianapolis Center
Sun 11:24:31 AM 39.3167 -80.7986 306° West 475 547 40,000  Level Indianapolis Center
Sun 11:25:33 AM 39.3944 -80.9369 306° West 477 549 40,000  Level Indianapolis Center
Sun 11:26:34 AM 39.4731 -81.0781 306° West 485 558 40,000  Level Indianapolis Center
Sun 11:27:36 AM 39.5658 -81.2447 306° West 478 550 40,000  Level Indianapolis Center
Sun 11:28:38 AM 39.6439 -81.3856 306° West 481 554 40,000  Level Indianapolis Center
Sun 11:29:40 AM 39.7194 -81.5253 305° West 482 555 40,000  Level Indianapolis Center
Sun 11:30:42 AM 39.7994 -81.6675 306° West 483 556 40,000  Level Indianapolis Center
Sun 11:31:43 AM 39.8778 -81.8117 305° West 484 557 40,000  Level Indianapolis Center
Sun 11:32:45 AM 39.9689 -81.9783 306° West 482 555 40,000  Level Indianapolis Center
Sun 11:33:47 AM 40.0469 -82.1219 305° West 480 552 40,000 -48 Level Indianapolis Center
Sun 11:34:49 AM 40.1242 -82.2639 305° West 478 550 39,900  Descending Indianapolis Center
Sun 11:35:51 AM 40.1992 -82.4036 305° West 470 541 40,000 49 Climbing Indianapolis Center
Sun 11:36:52 AM 40.2694 -82.5369 305° West 465 535 40,000  Level Indianapolis Center
Sun 11:37:54 AM 40.3444 -82.6789 305° West 467 537 40,000  Level Indianapolis Center
Sun 11:38:56 AM 40.4219 -82.8250 305° West 467 537 40,000  Level Indianapolis Center
Sun 11:39:58 AM 40.4956 -82.9644 305° West 463 533 40,000  Level Indianapolis Center
Sun 11:41:00 AM 40.5800 -83.1253 305° West 464 534 40,000  Level Indianapolis Center
Sun 11:42:02 AM 40.6556 -83.2689 305° West 465 535 40,000  Level Indianapolis Center
Sun 11:43:03 AM 40.7272 -83.4111 304° West 464 534 40,000  Level Indianapolis Center
Sun 11:44:05 AM 40.8006 -83.5511 305° West 463 533 40,000  Level Indianapolis Center
Sun 11:45:07 AM 40.8733 -83.6931 304° West 463 533 40,000  Level Indianapolis Center
Sun 11:46:09 AM 40.9456 -83.8364 304° West 464 534 40,000  Level Indianapolis Center
Sun 11:47:11 AM 41.0194 -83.9786 305° West 465 535 40,000  Level Indianapolis Center
Sun 11:48:13 AM 41.0925 -84.1244 304° West 468 539 40,000  Level Indianapolis Center
Sun 11:48:59 AM 41.1489 -84.2353 304° West 465 535 40,000  Level Chicago Center
Sun 11:50:01 AM 41.2219 -84.3792 304° West 469 540 40,000  Level Chicago Center
Sun 11:51:03 AM 41.3467 -84.4939 325° Northwest 459 528 40,000  Level Chicago Center
Sun 11:52:04 AM 41.4561 -84.5842 328° Northwest 462 532 40,000  Level Chicago Center
Sun 11:53:06 AM 41.5656 -84.6742 328° Northwest 465 535 40,000  Level Chicago Center
Sun 11:55:09 AM 41.7831 -84.8536 328° Northwest 463 533 40,000  Level Chicago Center
Sun 11:56:11 AM 41.8925 -84.9444 328° Northwest 466 536 40,000  Level Chicago Center
Sun 11:57:13 AM 42.0067 -85.0408 328° Northwest 464 534 40,000  Level Chicago Center
Sun 11:58:15 AM 42.1175 -85.1328 328° Northwest 468 539 40,000  Level Chicago Center
Sun 11:59:17 AM 42.2500 -85.2439 328° Northwest 467 537 40,000  Level Chicago Center
Sun 12:00:19 PM 42.3594 -85.3386 327° Northwest 468 539 40,000 -634 Level Chicago Center
Sun 12:01:20 PM 42.4697 -85.4333 328° Northwest 470 541 38,700 -1,561 Descending Chicago Center
Sun 12:02:22 PM 42.5811 -85.5322 327° Northwest 471 542 36,800 -2,032 Descending Chicago Center
Sun 12:03:24 PM 42.6567 -85.6672 307° West 474 545 34,500 -2,274 Descending Chicago Center
Sun 12:04:26 PM 42.7122 -85.8283 295° West 470 541 32,100 -2,274 Descending Chicago Center
Sun 12:05:28 PM 42.7725 -85.9897 297° West 472 543 29,800 -2,323 Descending Chicago Center
Sun 12:06:30 PM 42.8342 -86.1544 297° West 476 548 27,300 -2,488 Descending Chicago Center
Sun 12:07:31 PM 42.9067 -86.3475 297° West 472 543 24,700 -1,854 Descending Chicago Center
Sun 12:08:33 PM 42.9636 -86.5036 297° West 459 528 23,500 -1,548 Descending Chicago Center
Sun 12:09:35 PM 43.0178 -86.6569 296° West 445 512 21,500 -1,790 Descending Chicago Center
Sun 12:10:37 PM 43.0703 -86.8092 295° West 440 506 19,800 -1,694 Descending Chicago Center
Sun 12:11:39 PM 43.1256 -86.9556 297° West 433 498 18,000 -1,597 Descending Chicago Center
Sun 12:12:41 PM 43.1508 -87.1078 283° West 416 479 16,500 -1,452 Descending Chicago Center
Sun 12:13:43 PM 43.1447 -87.2639 267° West 413 475 15,000 -1,548 Descending Chicago Center
Sun 12:14:45 PM 43.1481 -87.4256 272° West 392 451 13,300 -1,645 Descending Chicago Center
Sun 12:15:47 PM 43.1542 -87.5908 273° West 369 425 11,600 -1,452 Descending Chicago Center
Sun 12:16:49 PM 43.1472 -87.7111 266° West 310 357 10,300 -1,403 Descending Chicago Center
Sun 12:17:51 PM 43.1275 -87.8050 254° West 260 299 8,700 -1,694 Descending Chicago Center
Sun 12:18:53 PM 43.1083 -87.8936 254° West 244 281 6,800 -1,854 Descending Chicago Center
Sun 12:19:54 PM 43.0900 -87.9814 254° West 241 277 4,900 -1,805 Descending Chicago Center
Sun 12:20:56 PM 43.0722 -88.0664 254° West 235 270 3,100 -1,161 Descending Chicago Center
Sun 12:21:58 PM 43.0417 -88.1350 239° Southwest 185 213 2,500 -629 Descending Chicago Center
Sun 12:23:00 PM 43.0336 -88.1869 258° West 160 184 1,800 -581 Descending Chicago Center
Sun 12:24:02 PM 43.0422 -88.2406 282° West 151 174 1,300 -484 Descending Chicago Center

Login

Don't have an account? Register now (free) for customized features, flight alerts, and more!